Time;durP1;ratioP1;P1;durP2;ratioP2;P2;SDS_P1;SDS_P2;PMS_P1;PMS_P2;Temp;Humidity;BMP_temperature;BMP_pressure;BME280_temperature;BME280_humidity;BME280_pressure;Samples;Min_cycle;Max_cycle;Signal;HPM_P1;HPM_P2
2022/03/21 00:00:47;;;;;;;;;;;5.50;91.10;;;;;;5095286;28;20426;-41
2022/03/21 00:03:14;;;;;;;;;;;5.50;92.10;;;;;;5095370;28;19951;-42
2022/03/21 00:05:40;;;;;;;;;;;5.50;90.90;;;;;;5095644;28;19916;-43
2022/03/21 00:08:05;;;;;;;;;;;5.50;91.10;;;;;;5095443;28;19908;-43
2022/03/21 00:10:34;;;;;;;;;;;5.40;90.00;;;;;;5095440;28;19998;-43
2022/03/21 00:13:00;;;;;;;;;;;5.30;91.10;;;;;;5095026;28;19954;-41
2022/03/21 00:15:26;;;;;;;;;;;5.30;90.60;;;;;;5094954;28;19971;-42
2022/03/21 00:17:52;;;;;;;;;;;5.30;90.60;;;;;;5095325;28;19996;-41
2022/03/21 00:20:18;;;;;;;;;;;5.30;91.40;;;;;;5095340;28;19915;-42
2022/03/21 00:22:44;;;;;;;;;;;5.30;92.70;;;;;;5095199;28;20369;-42
2022/03/21 00:25:09;;;;;;;;;;;5.30;94.70;;;;;;5094968;28;19908;-42
2022/03/21 00:27:36;;;;;;;;;;;5.30;95.60;;;;;;5095401;28;20338;-42
2022/03/21 00:30:03;;;;;;;;;;;5.30;96.00;;;;;;5095026;28;19920;-41
2022/03/21 00:32:28;;;;;;;;;;;5.30;95.60;;;;;;5094719;28;19912;-41
2022/03/21 00:34:54;;;;;;;;;;;5.30;97.10;;;;;;5094498;28;19915;-42
2022/03/21 00:37:20;;;;;;;;;;;5.30;97.10;;;;;;5094522;28;19908;-43
2022/03/21 00:39:45;;;;;;;;;;;5.20;97.90;;;;;;5095003;28;19915;-43
2022/03/21 00:42:11;;;;;;;;;;;5.20;98.00;;;;;;5094858;28;19916;-42
2022/03/21 00:44:37;;;;;;;;;;;5.10;97.10;;;;;;5094901;28;19919;-41
2022/03/21 00:47:03;;;;;;;;;;;5.10;97.70;;;;;;5093422;28;20003;-41
2022/03/21 00:49:28;;;;;;;;;;;5.10;98.20;;;;;;5093073;28;19955;-43
2022/03/21 00:51:54;;;;;;;;;;;5.00;97.10;;;;;;5094653;28;19959;-42
2022/03/21 00:54:19;;;;;;;;;;;5.00;96.30;;;;;;5094394;28;19912;-41
2022/03/21 00:56:45;;;;;;;;;;;4.90;97.10;;;;;;5094693;28;19908;-41
2022/03/21 00:59:10;;;;;;;;;;;4.90;99.00;;;;;;5094651;28;19919;-41
2022/03/21 01:01:36;;;;;;;;;;;4.80;99.40;;;;;;5094601;28;20260;-42
2022/03/21 01:04:01;;;;;;;;;;;4.80;99.80;;;;;;5094328;28;19923;-43
2022/03/21 01:06:27;;;;;;;;;;;4.70;99.30;;;;;;5094388;28;19978;-41
2022/03/21 01:08:52;;;;;;;;;;;4.60;99.90;;;;;;5094382;28;19916;-41
2022/03/21 01:11:18;;;;;;;;;;;4.60;99.90;;;;;;5094123;28;19919;-42
2022/03/21 01:13:43;;;;;;;;;;;4.50;99.90;;;;;;5094354;28;19912;-43
2022/03/21 01:16:09;;;;;;;;;;;4.50;97.60;;;;;;5093095;28;19916;-42
2022/03/21 01:18:34;;;;;;;;;;;4.40;99.40;;;;;;5094067;28;19931;-42
2022/03/21 01:21:00;;;;;;;;;;;4.40;98.60;;;;;;5094037;28;20417;-42
2022/03/21 01:23:25;;;;;;;;;;;4.30;98.70;;;;;;5094152;28;19961;-42
2022/03/21 01:25:51;;;;;;;;;;;4.40;97.60;;;;;;5093840;28;20010;-42
2022/03/21 01:28:17;;;;;;;;;;;4.40;99.10;;;;;;5093920;28;19908;-42
2022/03/21 01:30:42;;;;;;;;;;;4.30;99.60;;;;;;5094037;28;19920;-42
2022/03/21 01:33:08;;;;;;;;;;;4.20;99.90;;;;;;5093938;28;19908;-44
2022/03/21 01:35:33;;;;;;;;;;;4.20;99.90;;;;;;5094117;28;19908;-43
2022/03/21 01:37:59;;;;;;;;;;;4.20;99.90;;;;;;5092890;28;19909;-42
2022/03/21 01:40:24;;;;;;;;;;;4.10;99.90;;;;;;5094416;28;19915;-43
2022/03/21 01:42:50;;;;;;;;;;;4.10;99.90;;;;;;5093752;28;20004;-42
2022/03/21 01:45:16;;;;;;;;;;;4.10;99.90;;;;;;5094023;28;19912;-44
2022/03/21 01:47:42;;;;;;;;;;;4.00;99.90;;;;;;5096818;28;19915;-42
2022/03/21 01:50:08;;;;;;;;;;;4.00;99.90;;;;;;5096845;28;20007;-42
2022/03/21 01:52:36;;;;;;;;;;;4.00;99.90;;;;;;5098264;28;19912;-44
2022/03/21 01:57:46;;;;;;;;;;;4.00;99.90;;;;;;5097878;28;19954;-42
2022/03/21 02:00:12;;;;;;;;;;;3.90;99.90;;;;;;5097961;28;19912;-42
2022/03/21 02:02:38;;;;;;;;;;;3.90;99.90;;;;;;5097743;28;19909;-43
2022/03/21 02:05:04;;;;;;;;;;;3.80;99.90;;;;;;5097535;28;19915;-42
2022/03/21 02:07:29;;;;;;;;;;;3.80;99.90;;;;;;5097961;28;19908;-42
2022/03/21 02:09:55;;;;;;;;;;;3.80;99.90;;;;;;5097826;28;20260;-45
2022/03/21 02:12:21;;;;;;;;;;;3.80;99.90;;;;;;5097716;28;19920;-42
2022/03/21 02:14:47;;;;;;;;;;;3.70;99.90;;;;;;5097777;28;19923;-42
2022/03/21 02:17:17;;;;;;;;;;;3.60;99.90;;;;;;5097342;28;19923;-42
2022/03/21 02:19:43;;;;;;;;;;;3.70;99.90;;;;;;5096333;28;20269;-42
2022/03/21 02:22:15;;;;;;;;;;;3.70;99.90;;;;;;5097789;28;19909;-42
2022/03/21 02:24:47;;;;;;;;;;;3.60;99.90;;;;;;5096138;28;19919;-42
2022/03/21 02:27:13;;;;;;;;;;;3.60;99.90;;;;;;5097452;28;19915;-42
2022/03/21 02:29:40;;;;;;;;;;;3.60;99.90;;;;;;5095974;28;19926;-42
2022/03/21 02:32:06;;;;;;;;;;;3.60;99.90;;;;;;5097028;28;19923;-42
2022/03/21 02:34:35;;;;;;;;;;;3.60;99.90;;;;;;5095899;28;19908;-44
2022/03/21 02:37:01;;;;;;;;;;;3.60;99.90;;;;;;5096812;28;19920;-42
2022/03/21 02:39:27;;;;;;;;;;;3.60;99.90;;;;;;5097192;28;19913;-42
2022/03/21 02:41:53;;;;;;;;;;;3.50;99.90;;;;;;5096904;28;19908;-42
2022/03/21 02:44:18;;;;;;;;;;;3.30;99.90;;;;;;5096831;28;19915;-42
2022/03/21 02:46:45;;;;;;;;;;;3.40;99.90;;;;;;5097434;28;19914;-41
2022/03/21 02:49:11;;;;;;;;;;;3.40;99.90;;;;;;5096677;28;19951;-42
2022/03/21 02:51:39;;;;;;;;;;;3.30;99.90;;;;;;5096903;28;19971;-42
2022/03/21 02:54:04;;;;;;;;;;;3.40;99.90;;;;;;5096933;28;19947;-41
2022/03/21 02:56:30;;;;;;;;;;;3.30;99.90;;;;;;5096681;28;19912;-42
2022/03/21 02:58:56;;;;;;;;;;;3.40;99.90;;;;;;5096094;28;19908;-42
2022/03/21 03:01:21;;;;;;;;;;;3.40;99.90;;;;;;5095557;28;19908;-42
2022/03/21 03:03:47;;;;;;;;;;;3.40;99.90;;;;;;5097046;28;19977;-42
2022/03/21 03:06:13;;;;;;;;;;;3.40;99.90;;;;;;5096406;28;19909;-42
2022/03/21 03:08:39;;;;;;;;;;;3.40;99.90;;;;;;5096654;28;19908;-43
2022/03/21 03:11:05;;;;;;;;;;;3.40;99.90;;;;;;5096300;28;19924;-45
2022/03/21 03:13:31;;;;;;;;;;;3.30;99.90;;;;;;5096569;28;19912;-42
2022/03/21 03:15:56;;;;;;;;;;;3.10;99.90;;;;;;5096488;28;19908;-42
2022/03/21 03:18:22;;;;;;;;;;;3.10;99.90;;;;;;5096552;28;20381;-42
2022/03/21 03:20:52;;;;;;;;;;;3.10;99.90;;;;;;5096711;28;20414;-42
2022/03/21 03:23:18;;;;;;;;;;;3.20;99.90;;;;;;5096399;28;19915;-42
2022/03/21 03:25:44;;;;;;;;;;;3.10;99.90;;;;;;5096248;28;20308;-42
2022/03/21 03:28:09;;;;;;;;;;;3.10;99.90;;;;;;5096285;28;19908;-42
2022/03/21 03:30:35;;;;;;;;;;;3.10;99.90;;;;;;5096152;28;19923;-42
2022/03/21 03:33:01;;;;;;;;;;;3.10;99.90;;;;;;5095876;28;19919;-42
2022/03/21 03:35:27;;;;;;;;;;;3.10;99.90;;;;;;5096447;28;19916;-42
2022/03/21 03:37:53;;;;;;;;;;;3.20;99.90;;;;;;5096044;28;19999;-42
2022/03/21 03:40:19;;;;;;;;;;;3.20;99.90;;;;;;5096472;28;19908;-41
2022/03/21 03:42:44;;;;;;;;;;;3.20;99.90;;;;;;5095696;28;19916;-42
2022/03/21 03:45:10;;;;;;;;;;;3.10;99.90;;;;;;5096010;28;19912;-42
2022/03/21 03:47:35;;;;;;;;;;;3.10;99.90;;;;;;5096005;28;19908;-41
2022/03/21 03:50:01;;;;;;;;;;;3.10;99.90;;;;;;5095528;28;19908;-42
2022/03/21 03:52:27;;;;;;;;;;;3.10;99.90;;;;;;5095736;28;19973;-41
2022/03/21 03:54:52;;;;;;;;;;;3.00;99.90;;;;;;5096103;28;20304;-41
2022/03/21 03:57:19;;;;;;;;;;;3.00;99.90;;;;;;5095747;28;19959;-41
2022/03/21 03:59:45;;;;;;;;;;;3.00;99.90;;;;;;5095262;28;19908;-41
2022/03/21 04:02:10;;;;;;;;;;;3.00;99.90;;;;;;5095280;28;19919;-41
2022/03/21 04:04:36;;;;;;;;;;;2.90;99.90;;;;;;5095660;28;19909;-41
2022/03/21 04:07:02;;;;;;;;;;;2.80;99.90;;;;;;5095555;28;20255;-41
2022/03/21 04:09:28;;;;;;;;;;;2.90;99.90;;;;;;5094020;28;19919;-41
2022/03/21 04:11:53;;;;;;;;;;;2.70;99.90;;;;;;5089713;28;19970;-41
2022/03/21 04:14:19;;;;;;;;;;;2.60;99.90;;;;;;5095520;28;19918;-42
2022/03/21 04:16:44;;;;;;;;;;;2.70;99.90;;;;;;5094870;28;20358;-42
2022/03/21 04:19:13;;;;;;;;;;;2.60;99.90;;;;;;5094792;28;20293;-42
2022/03/21 04:21:39;;;;;;;;;;;2.60;99.90;;;;;;5095221;28;19999;-41
2022/03/21 04:24:05;;;;;;;;;;;2.50;99.90;;;;;;5094935;28;20383;-41
2022/03/21 04:26:30;;;;;;;;;;;2.40;99.90;;;;;;5093842;28;20007;-42
2022/03/21 04:28:56;;;;;;;;;;;2.60;99.90;;;;;;5094099;28;19969;-42
2022/03/21 04:31:21;;;;;;;;;;;2.60;99.90;;;;;;5091845;28;19943;-41
2022/03/21 04:33:47;;;;;;;;;;;2.50;99.90;;;;;;5093343;28;20355;-42
2022/03/21 04:36:13;;;;;;;;;;;2.30;99.90;;;;;;5093563;28;19912;-41
2022/03/21 04:38:39;;;;;;;;;;;2.30;99.90;;;;;;5093455;28;19915;-42
2022/03/21 04:41:06;;;;;;;;;;;2.40;99.90;;;;;;5093159;28;19951;-42
2022/03/21 04:43:32;;;;;;;;;;;2.40;99.90;;;;;;5094990;28;19923;-43
2022/03/21 04:45:58;;;;;;;;;;;2.40;99.90;;;;;;5092890;28;19916;-42
2022/03/21 04:48:24;;;;;;;;;;;2.40;99.90;;;;;;5092926;28;19980;-42
2022/03/21 04:50:49;;;;;;;;;;;2.50;99.90;;;;;;5092969;28;19916;-42
2022/03/21 04:53:15;;;;;;;;;;;2.40;99.90;;;;;;5093450;28;19908;-42
2022/03/21 04:55:41;;;;;;;;;;;2.40;99.90;;;;;;5093007;28;20266;-42
2022/03/21 04:58:07;;;;;;;;;;;2.30;99.90;;;;;;5093463;28;19912;-43
2022/03/21 05:00:32;;;;;;;;;;;2.30;99.90;;;;;;5092904;28;19923;-41
2022/03/21 05:02:59;;;;;;;;;;;2.10;99.90;;;;;;5092578;28;19908;-41
2022/03/21 05:05:25;;;;;;;;;;;2.20;99.90;;;;;;5092666;28;20003;-41
2022/03/21 05:07:53;;;;;;;;;;;2.30;99.90;;;;;;5094670;28;19999;-42
2022/03/21 05:10:21;;;;;;;;;;;2.30;99.90;;;;;;5091485;28;19915;-42
2022/03/21 05:12:46;;;;;;;;;;;2.10;99.90;;;;;;5092836;28;20306;-42
2022/03/21 05:15:12;;;;;;;;;;;2.10;99.90;;;;;;5089734;28;19997;-42
2022/03/21 05:17:38;;;;;;;;;;;2.00;99.90;;;;;;5089027;28;19912;-44
2022/03/21 05:20:15;;;;;;;;;;;2.10;99.90;;;;;;5093486;28;20251;-41
2022/03/21 05:22:42;;;;;;;;;;;2.20;99.90;;;;;;5093981;28;19912;-41
2022/03/21 05:36:08;;;;;;;;;;;2.30;99.90;;;;;;5092835;28;20033;-42
2022/03/21 05:38:34;;;;;;;;;;;2.30;99.90;;;;;;5093129;28;20155;-50
2022/03/21 05:41:00;;;;;;;;;;;2.40;99.90;;;;;;5091990;28;19931;-41
2022/03/21 05:43:30;;;;;;;;;;;2.40;99.90;;;;;;5093238;28;20381;-42
2022/03/21 05:45:55;;;;;;;;;;;2.40;99.90;;;;;;5093669;28;20266;-42
2022/03/21 05:51:06;;;;;;;;;;;2.50;99.90;;;;;;5093478;28;20282;-42
2022/03/21 05:53:31;;;;;;;;;;;2.60;99.90;;;;;;5092400;28;19912;-43
2022/03/21 05:56:00;;;;;;;;;;;2.60;99.90;;;;;;5093636;28;20336;-41
2022/03/21 05:58:26;;;;;;;;;;;2.70;99.90;;;;;;5093523;28;20370;-43
2022/03/21 06:00:52;;;;;;;;;;;2.70;99.90;;;;;;5075413;28;19915;-42
2022/03/21 06:03:17;;;;;;;;;;;2.90;99.90;;;;;;5093603;28;19912;-42
2022/03/21 06:05:44;;;;;;;;;;;3.00;99.90;;;;;;5093270;28;20003;-42
2022/03/21 06:08:10;;;;;;;;;;;3.00;99.90;;;;;;5092974;28;19909;-42
2022/03/21 06:10:38;;;;;;;;;;;3.00;99.90;;;;;;5093201;28;19916;-41
2022/03/21 06:13:08;;;;;;;;;;;3.00;99.90;;;;;;5092992;28;19954;-42
2022/03/21 06:15:36;;;;;;;;;;;3.20;99.90;;;;;;5092921;28;20343;-42
2022/03/21 06:18:07;;;;;;;;;;;3.40;99.90;;;;;;5092586;28;19939;-42
2022/03/21 06:20:33;;;;;;;;;;;3.30;99.90;;;;;;5093007;28;19995;-42
2022/03/21 06:22:58;;;;;;;;;;;3.40;99.90;;;;;;5089890;28;19944;-42
2022/03/21 06:25:24;;;;;;;;;;;3.50;99.90;;;;;;5088375;28;19916;-42
2022/03/21 06:27:50;;;;;;;;;;;3.70;99.90;;;;;;5091345;28;19965;-42
2022/03/21 06:30:15;;;;;;;;;;;3.80;99.90;;;;;;5092772;28;19920;-42
2022/03/21 06:32:41;;;;;;;;;;;3.90;99.90;;;;;;5092531;28;19984;-42
2022/03/21 06:35:09;;;;;;;;;;;3.90;99.90;;;;;;5095310;28;19908;-41
2022/03/21 06:37:35;;;;;;;;;;;4.00;99.90;;;;;;5096847;28;20425;-41
2022/03/21 06:40:00;;;;;;;;;;;4.10;99.90;;;;;;5091872;28;19912;-42
2022/03/21 06:42:26;;;;;;;;;;;4.10;99.90;;;;;;5096521;28;19923;-42
2022/03/21 06:44:53;;;;;;;;;;;4.30;99.90;;;;;;5096168;28;19931;-42
2022/03/21 06:47:18;;;;;;;;;;;4.40;99.90;;;;;;5096664;28;19908;-42
2022/03/21 06:49:44;;;;;;;;;;;4.60;99.90;;;;;;5095641;28;20023;-42
2022/03/21 06:52:10;;;;;;;;;;;4.80;99.90;;;;;;5091300;28;20243;-43
2022/03/21 06:54:36;;;;;;;;;;;4.80;99.90;;;;;;5091474;28;20251;-42
2022/03/21 06:57:02;;;;;;;;;;;5.10;99.90;;;;;;5095741;28;19953;-40
2022/03/21 06:59:29;;;;;;;;;;;5.10;99.90;;;;;;5095377;28;19977;-42
2022/03/21 07:01:57;;;;;;;;;;;5.30;99.90;;;;;;5090850;28;19909;-43
2022/03/21 07:04:26;;;;;;;;;;;5.40;99.90;;;;;;5096043;28;19930;-42
2022/03/21 07:06:52;;;;;;;;;;;5.50;99.90;;;;;;5095631;28;19912;-42
2022/03/21 07:09:18;;;;;;;;;;;5.70;99.90;;;;;;5091079;28;19908;-43
2022/03/21 07:11:44;;;;;;;;;;;5.70;99.90;;;;;;5085855;28;20284;-43
2022/03/21 07:14:10;;;;;;;;;;;5.90;99.90;;;;;;5094358;28;20309;-42
2022/03/21 07:16:35;;;;;;;;;;;5.90;99.30;;;;;;5093848;28;19915;-42
2022/03/21 07:19:01;;;;;;;;;;;6.10;99.90;;;;;;5094797;28;19912;-47
2022/03/21 07:21:27;;;;;;;;;;;6.40;99.90;;;;;;5094030;28;19931;-42
2022/03/21 07:23:52;;;;;;;;;;;6.40;99.90;;;;;;5094049;28;19916;-44
2022/03/21 07:26:18;;;;;;;;;;;6.50;99.90;;;;;;5094218;28;19908;-42
2022/03/21 07:28:44;;;;;;;;;;;6.70;99.90;;;;;;5094345;28;19908;-42
2022/03/21 07:31:10;;;;;;;;;;;6.80;99.90;;;;;;5091891;28;20305;-43
2022/03/21 07:33:40;;;;;;;;;;;6.90;99.50;;;;;;5093630;28;20018;-42
2022/03/21 07:36:05;;;;;;;;;;;6.90;99.90;;;;;;5093934;28;19973;-42
2022/03/21 07:38:31;;;;;;;;;;;7.00;99.90;;;;;;5093353;28;19932;-42
2022/03/21 07:40:57;;;;;;;;;;;7.20;99.90;;;;;;5093855;28;19977;-42
2022/03/21 07:43:23;;;;;;;;;;;7.30;99.60;;;;;;5092150;28;19996;-42
2022/03/21 07:48:32;;;;;;;;;;;7.60;99.90;;;;;;5093435;28;20535;-43
2022/03/21 07:50:58;;;;;;;;;;;7.90;99.90;;;;;;5093706;28;20007;-42
2022/03/21 07:53:23;;;;;;;;;;;8.00;99.90;;;;;;5092997;28;20007;-44
2022/03/21 07:55:49;;;;;;;;;;;8.00;99.90;;;;;;5093065;28;19919;-42
2022/03/21 07:58:14;;;;;;;;;;;7.90;97.30;;;;;;5094933;28;19919;-42
2022/03/21 08:00:41;;;;;;;;;;;7.70;98.30;;;;;;5094056;28;20018;-42
2022/03/21 08:03:14;;;;;;;;;;;7.50;96.90;;;;;;5092290;28;19909;-42
2022/03/21 08:05:40;;;;;;;;;;;7.10;97.20;;;;;;5093467;28;19909;-42
2022/03/21 08:08:07;;;;;;;;;;;7.30;98.40;;;;;;5094114;28;19930;-42
2022/03/21 08:10:32;;;;;;;;;;;7.50;99.00;;;;;;5091839;28;19920;-44
2022/03/21 08:12:58;;;;;;;;;;;7.60;99.90;;;;;;5096516;28;19919;-43
2022/03/21 08:15:24;;;;;;;;;;;8.00;99.70;;;;;;5099008;28;19915;-42
2022/03/21 08:17:50;;;;;;;;;;;8.00;96.70;;;;;;5095900;28;19913;-43
2022/03/21 08:20:17;;;;;;;;;;;8.00;99.90;;;;;;5109941;28;20425;-42
2022/03/21 08:22:43;;;;;;;;;;;8.10;96.80;;;;;;5093510;28;19918;-41
2022/03/21 08:25:09;;;;;;;;;;;8.20;96.70;;;;;;5087952;28;20285;-45
2022/03/21 08:27:36;;;;;;;;;;;7.70;95.00;;;;;;5082627;28;19904;-48
2022/03/21 08:30:02;;;;;;;;;;;7.70;95.90;;;;;;5094745;28;20290;-47
2022/03/21 08:32:27;;;;;;;;;;;7.60;95.90;;;;;;5099632;28;19951;-43
2022/03/21 08:34:53;;;;;;;;;;;7.90;96.80;;;;;;5081444;28;20298;-43
2022/03/21 08:37:21;;;;;;;;;;;8.10;95.70;;;;;;5093903;28;19912;-43
2022/03/21 08:39:46;;;;;;;;;;;8.00;95.40;;;;;;5080438;28;19912;-43
2022/03/21 08:42:12;;;;;;;;;;;8.30;95.90;;;;;;5094066;28;19918;-42
2022/03/21 08:44:39;;;;;;;;;;;8.60;97.10;;;;;;5094066;28;19926;-43
2022/03/21 08:47:05;;;;;;;;;;;8.70;95.50;;;;;;5093978;28;19908;-42
2022/03/21 08:49:33;;;;;;;;;;;8.30;95.20;;;;;;5093816;28;19919;-42
2022/03/21 08:52:01;;;;;;;;;;;8.60;96.30;;;;;;5093974;28;19920;-43
2022/03/21 08:54:26;;;;;;;;;;;8.90;96.20;;;;;;5094048;28;19912;-42
2022/03/21 08:56:52;;;;;;;;;;;9.30;96.00;;;;;;5093443;28;19951;-42
2022/03/21 08:59:18;;;;;;;;;;;9.00;93.30;;;;;;5093612;28;20242;-41
2022/03/21 09:01:44;;;;;;;;;;;8.60;93.60;;;;;;5093750;28;20036;-42
2022/03/21 09:04:10;;;;;;;;;;;8.70;95.40;;;;;;5093830;28;20358;-43
2022/03/21 09:06:35;;;;;;;;;;;9.20;94.00;;;;;;5088677;28;19913;-42
2022/03/21 09:09:01;;;;;;;;;;;9.00;94.10;;;;;;5089566;28;19966;-42
2022/03/21 09:11:27;;;;;;;;;;;9.20;92.60;;;;;;5077816;28;19956;-43
2022/03/21 09:13:52;;;;;;;;;;;9.10;94.20;;;;;;5090402;28;20003;-43
2022/03/21 09:16:19;;;;;;;;;;;9.30;92.50;;;;;;5090497;28;19919;-42
2022/03/21 09:18:44;;;;;;;;;;;9.60;95.00;;;;;;5090833;28;19912;-42
2022/03/21 09:21:11;;;;;;;;;;;10.00;94.90;;;;;;5089270;28;19987;-42
2022/03/21 09:23:37;;;;;;;;;;;9.50;93.70;;;;;;5093170;28;20359;-43
2022/03/21 09:26:03;;;;;;;;;;;9.60;91.80;;;;;;5091402;28;20367;-42
2022/03/21 09:28:29;;;;;;;;;;;10.00;92.30;;;;;;5082082;28;19971;-42
2022/03/21 09:30:55;;;;;;;;;;;10.10;91.40;;;;;;5073111;28;19921;-43
2022/03/21 09:33:21;;;;;;;;;;;10.30;91.90;;;;;;5094786;28;20404;-44
2022/03/21 09:35:47;;;;;;;;;;;10.50;91.90;;;;;;5090332;28;19908;-44
2022/03/21 09:38:14;;;;;;;;;;;10.30;90.20;;;;;;5091810;28;19955;-44
2022/03/21 09:40:41;;;;;;;;;;;10.20;89.80;;;;;;5082249;28;20004;-47
2022/03/21 09:43:07;;;;;;;;;;;10.30;93.50;;;;;;5083852;28;19919;-42
2022/03/21 09:45:33;;;;;;;;;;;10.50;90.10;;;;;;5083704;28;20360;-41
2022/03/21 09:48:09;;;;;;;;;;;10.30;90.00;;;;;;5093939;28;20333;-50
2022/03/21 09:50:36;;;;;;;;;;;10.30;87.00;;;;;;5090397;28;19920;-42
2022/03/21 09:53:05;;;;;;;;;;;10.60;87.90;;;;;;5091540;28;19913;-47
2022/03/21 09:55:31;;;;;;;;;;;10.60;90.20;;;;;;5097296;28;19915;-43
2022/03/21 09:57:56;;;;;;;;;;;10.90;93.80;;;;;;5080130;28;19912;-41
2022/03/21 10:00:22;;;;;;;;;;;11.20;90.10;;;;;;5091460;28;19912;-41
2022/03/21 10:02:48;;;;;;;;;;;11.40;88.40;;;;;;5085540;28;19913;-42
2022/03/21 10:05:50;;;;;;;;;;;10.70;83.80;;;;;;5084892;28;19912;-42
2022/03/21 10:08:27;;;;;;;;;;;11.10;92.20;;;;;;5066355;28;20374;-45
2022/03/21 10:11:01;;;;;;;;;;;11.70;93.80;;;;;;5080411;28;19924;-43
2022/03/21 10:13:29;;;;;;;;;;;11.70;85.60;;;;;;5087666;28;20408;-43
2022/03/21 10:16:08;;;;;;;;;;;11.20;86.60;;;;;;5086003;28;19919;-45
2022/03/21 10:18:34;;;;;;;;;;;11.20;87.00;;;;;;5097470;28;20014;-43
2022/03/21 10:21:12;;;;;;;;;;;11.10;87.30;;;;;;5096895;28;19912;-45
2022/03/21 10:23:38;;;;;;;;;;;11.30;88.90;;;;;;5095691;28;20290;-44
2022/03/21 10:26:36;;;;;;;;;;;12.00;95.70;;;;;;5096859;28;19908;-42
2022/03/21 10:29:05;;;;;;;;;;;12.50;91.80;;;;;;5077891;28;19935;-44
2022/03/21 10:31:44;;;;;;;;;;;12.70;90.70;;;;;;5116771;28;19924;-43
2022/03/21 10:34:11;;;;;;;;;;;12.90;91.30;;;;;;5117002;28;19918;-43
2022/03/21 10:36:56;;;;;;;;;;;13.00;80.70;;;;;;5117167;28;19908;-42
2022/03/21 10:39:21;;;;;;;;;;;12.80;83.20;;;;;;5114920;27;20011;-42
2022/03/21 10:41:47;;;;;;;;;;;12.90;84.50;;;;;;5096820;28;19908;-47
2022/03/21 10:44:12;;;;;;;;;;;13.00;78.20;;;;;;5101724;28;19912;-46
2022/03/21 10:46:40;;;;;;;;;;;12.80;78.70;;;;;;5116550;28;20284;-43
2022/03/21 10:49:07;;;;;;;;;;;12.90;77.60;;;;;;5116158;28;19943;-43
2022/03/21 10:51:53;;;;;;;;;;;12.70;75.70;;;;;;5102905;28;20259;-42
2022/03/21 10:54:34;;;;;;;;;;;12.40;75.50;;;;;;5079834;28;19919;-42
2022/03/21 10:56:59;;;;;;;;;;;12.10;77.00;;;;;;5082693;28;19912;-53
2022/03/21 10:59:25;;;;;;;;;;;12.30;79.40;;;;;;5090234;28;20273;-43
2022/03/21 11:02:08;;;;;;;;;;;12.20;78.30;;;;;;5082649;28;20309;-42
2022/03/21 11:04:33;;;;;;;;;;;12.30;77.20;;;;;;5080980;28;19995;-42
2022/03/21 11:06:59;;;;;;;;;;;12.40;81.30;;;;;;5094971;28;19951;-45
2022/03/21 11:09:25;;;;;;;;;;;12.70;79.30;;;;;;5088347;28;19908;-45
2022/03/21 11:11:50;;;;;;;;;;;12.90;77.90;;;;;;5082110;28;19924;-46
2022/03/21 11:14:16;;;;;;;;;;;12.60;76.40;;;;;;5084719;28;19962;-45
2022/03/21 11:16:41;;;;;;;;;;;12.30;76.10;;;;;;5101715;28;19953;-44
2022/03/21 11:19:07;;;;;;;;;;;12.30;75.70;;;;;;5093538;28;19912;-44
2022/03/21 11:21:33;;;;;;;;;;;12.30;75.10;;;;;;5099386;28;19912;-44
2022/03/21 11:23:59;;;;;;;;;;;12.50;74.60;;;;;;5105922;28;21150;-45
2022/03/21 11:26:31;;;;;;;;;;;12.80;74.50;;;;;;5103922;28;19947;-44
2022/03/21 11:29:06;;;;;;;;;;;13.00;76.50;;;;;;5098712;28;19912;-47
2022/03/21 11:31:38;;;;;;;;;;;13.20;73.50;;;;;;5095089;28;20053;-47
2022/03/21 11:34:13;;;;;;;;;;;13.20;72.30;;;;;;5088682;28;19960;-45
2022/03/21 11:36:55;;;;;;;;;;;13.70;73.90;;;;;;5086945;28;19908;-45
2022/03/21 11:39:21;;;;;;;;;;;13.80;77.60;;;;;;5096039;28;19916;-44
2022/03/21 11:42:07;;;;;;;;;;;14.20;72.70;;;;;;5097689;28;20052;-47
2022/03/21 11:44:33;;;;;;;;;;;13.50;71.00;;;;;;5110316;28;19915;-45
2022/03/21 11:47:17;;;;;;;;;;;13.20;70.90;;;;;;5102574;28;19974;-46
2022/03/21 11:49:44;;;;;;;;;;;13.30;71.00;;;;;;5105997;28;19912;-45
2022/03/21 11:52:10;;;;;;;;;;;13.70;74.80;;;;;;5098063;28;19977;-44
2022/03/21 11:54:39;;;;;;;;;;;14.00;83.20;;;;;;5110582;28;19997;-46
2022/03/21 11:57:05;;;;;;;;;;;14.50;72.20;;;;;;5102801;28;19908;-44
2022/03/21 11:59:52;;;;;;;;;;;14.20;71.60;;;;;;5095812;28;19947;-46
2022/03/21 12:02:17;;;;;;;;;;;14.40;73.30;;;;;;5094657;27;19967;-46
2022/03/21 12:04:56;;;;;;;;;;;14.00;69.50;;;;;;5105961;28;19998;-46
2022/03/21 12:07:21;;;;;;;;;;;14.20;69.50;;;;;;5115254;28;20335;-44
2022/03/21 12:09:48;;;;;;;;;;;14.00;68.30;;;;;;5109066;28;19912;-44
2022/03/21 12:12:17;;;;;;;;;;;14.30;75.50;;;;;;5082312;28;19920;-45
2022/03/21 12:14:44;;;;;;;;;;;14.60;73.70;;;;;;5083344;28;19908;-43
2022/03/21 12:17:10;;;;;;;;;;;14.60;67.00;;;;;;5109880;28;19911;-47
2022/03/21 12:19:44;;;;;;;;;;;13.90;69.70;;;;;;5079574;28;19965;-45
2022/03/21 12:22:34;;;;;;;;;;;13.30;68.90;;;;;;5088221;28;19966;-44
2022/03/21 12:25:00;;;;;;;;;;;13.60;68.40;;;;;;5079871;28;19962;-43
2022/03/21 12:27:30;;;;;;;;;;;13.60;68.00;;;;;;5076317;28;20402;-43
2022/03/21 12:30:15;;;;;;;;;;;13.60;68.20;;;;;;5100299;28;19927;-50
2022/03/21 12:32:48;;;;;;;;;;;13.90;68.10;;;;;;5092468;28;19995;-46
2022/03/21 12:35:32;;;;;;;;;;;14.10;69.30;;;;;;5077863;28;19938;-46
2022/03/21 12:38:11;;;;;;;;;;;14.00;67.50;;;;;;5095680;28;19909;-46
2022/03/21 12:40:52;;;;;;;;;;;13.40;67.50;;;;;;5094006;28;20245;-46
2022/03/21 12:43:19;;;;;;;;;;;13.00;68.20;;;;;;5089893;28;19912;-48
2022/03/21 12:45:45;;;;;;;;;;;13.20;67.70;;;;;;5094136;28;19936;-44
2022/03/21 12:48:11;;;;;;;;;;;13.10;68.00;;;;;;5078379;28;19916;-44
2022/03/21 12:50:37;;;;;;;;;;;13.10;68.80;;;;;;5091395;28;19919;-46
2022/03/21 12:53:04;;;;;;;;;;;13.30;68.70;;;;;;5082573;28;19912;-47
2022/03/21 12:55:30;;;;;;;;;;;13.60;67.70;;;;;;5089334;28;19912;-46
2022/03/21 12:57:57;;;;;;;;;;;13.50;69.00;;;;;;5090170;28;19913;-45
2022/03/21 13:00:24;;;;;;;;;;;13.70;69.40;;;;;;5095168;28;19953;-44
2022/03/21 13:02:55;;;;;;;;;;;14.00;70.10;;;;;;5101109;28;19911;-44
2022/03/21 13:11:05;;;;;;;;;;;13.50;67.70;;;;;;5069552;28;19920;-47
2022/03/21 13:13:41;;;;;;;;;;;14.00;66.80;;;;;;5095864;28;20007;-44
2022/03/21 13:16:08;;;;;;;;;;;14.10;66.50;;;;;;5084387;28;19991;-45
2022/03/21 13:18:38;;;;;;;;;;;13.90;66.30;;;;;;5086890;28;19913;-43
2022/03/21 13:21:04;;;;;;;;;;;13.50;66.70;;;;;;5089259;28;19950;-48
2022/03/21 13:23:30;;;;;;;;;;;14.00;66.70;;;;;;5091090;28;19912;-45
2022/03/21 13:26:06;;;;;;;;;;;13.90;66.20;;;;;;5089962;28;20236;-50
2022/03/21 13:28:33;;;;;;;;;;;14.10;66.20;;;;;;5105438;28;19975;-44
2022/03/21 13:31:03;;;;;;;;;;;13.70;66.00;;;;;;5081928;28;19927;-45
2022/03/21 13:33:30;;;;;;;;;;;13.70;66.10;;;;;;5082754;28;19920;-45
2022/03/21 13:35:59;;;;;;;;;;;14.00;66.50;;;;;;5090837;28;19912;-47
2022/03/21 13:38:26;;;;;;;;;;;14.00;65.60;;;;;;5086287;28;19912;-49
2022/03/21 13:40:52;;;;;;;;;;;14.10;65.10;;;;;;5086387;28;19917;-47
2022/03/21 13:43:22;;;;;;;;;;;14.10;64.20;;;;;;5099778;28;19918;-46
2022/03/21 13:45:48;;;;;;;;;;;14.10;63.50;;;;;;5076065;28;19912;-45
2022/03/21 13:48:32;;;;;;;;;;;13.90;64.70;;;;;;5081857;28;19919;-45
2022/03/21 13:51:07;;;;;;;;;;;14.00;64.50;;;;;;5072854;28;20321;-45
2022/03/21 13:53:37;;;;;;;;;;;13.90;63.90;;;;;;5089730;28;20397;-46
2022/03/21 13:56:03;;;;;;;;;;;13.80;64.60;;;;;;5108722;28;20354;-46
2022/03/21 13:58:30;;;;;;;;;;;13.90;63.90;;;;;;5098394;28;19919;-43
2022/03/21 14:00:57;;;;;;;;;;;14.20;64.40;;;;;;5092820;28;19931;-46
2022/03/21 14:03:36;;;;;;;;;;;13.80;63.70;;;;;;5091513;28;19986;-49
2022/03/21 14:06:03;;;;;;;;;;;14.00;63.30;;;;;;5093166;28;19912;-45
2022/03/21 14:08:29;;;;;;;;;;;13.90;63.80;;;;;;5095766;28;20287;-49
2022/03/21 14:11:05;;;;;;;;;;;14.00;63.70;;;;;;5091682;28;19920;-45
2022/03/21 14:13:35;;;;;;;;;;;14.20;64.00;;;;;;5093415;28;19912;-45
2022/03/21 14:16:01;;;;;;;;;;;14.30;65.70;;;;;;5091460;28;19916;-45
2022/03/21 14:18:37;;;;;;;;;;;14.60;64.80;;;;;;5099050;28;19950;-45
2022/03/21 14:21:04;;;;;;;;;;;14.50;62.20;;;;;;5091182;28;19943;-45
2022/03/21 14:23:31;;;;;;;;;;;14.30;63.00;;;;;;5093069;28;19965;-47
2022/03/21 14:28:40;;;;;;;;;;;14.10;63.50;;;;;;5102522;28;19955;-47
2022/03/21 14:31:06;;;;;;;;;;;14.30;61.80;;;;;;5082857;28;19956;-44
2022/03/21 14:33:32;;;;;;;;;;;14.40;63.70;;;;;;5077528;28;19942;-44
2022/03/21 14:35:58;;;;;;;;;;;14.50;62.30;;;;;;5086246;28;19955;-45
2022/03/21 14:38:24;;;;;;;;;;;14.30;62.60;;;;;;5086876;28;19919;-45
2022/03/21 14:40:50;;;;;;;;;;;14.30;62.80;;;;;;5096518;28;19919;-49
2022/03/21 14:43:16;;;;;;;;;;;14.10;62.30;;;;;;5092812;28;20278;-44
2022/03/21 14:45:42;;;;;;;;;;;13.90;62.90;;;;;;5084884;28;20343;-46
2022/03/21 14:48:08;;;;;;;;;;;13.90;62.50;;;;;;5084281;28;19912;-48
2022/03/21 14:50:33;;;;;;;;;;;13.70;62.70;;;;;;5091949;28;19908;-44
2022/03/21 14:53:02;;;;;;;;;;;13.70;64.00;;;;;;5092219;28;19908;-44
2022/03/21 14:55:27;;;;;;;;;;;13.70;63.70;;;;;;5111964;28;19912;-47